Malaysia Virtual Airlines Airport Information Service

Kuantan

ICAO: WMKD Country: Malaysia
Latitude: 3.77539 Longitude: 103.209
Latest Arrival : MH1268 (WMKK-WMKD) Latest Departure : MH1269 (WMKD-WMKK)


WX CaptureLIVE
Data provided by noaa.gov | Fetched at 19:43:36

METAR : WMKD 121900Z 00000KT 9000 FEW005 25/24 Q1006 NOSIG

TAF : WMKD 121700Z 1218/1318 VRB01KT 9999 FEW024 BECMG 1223/1300 VRB03KT FEW020 TEMPO 1307/1311 7000 -TSRA FEW017CB


Runway Data for WMKD
Data provided by openaviationdata.com

Runway ID Mag Var Hdg Length Elevation Surface ILS Freq ILS Id ILS Slope
18 0 182° 9245 ft 58 ft Tarmac -- -- --
36 0 9245 ft 58 ft Tarmac 109.5 IKN 3

Kuantan, Malaysia
Use only for reference purposes



Not for navigational purposes.